sensor_id;sensor_type;location;lat;lon;timestamp;temperature;humidity
54124;DHT22;55741;53.252;5.788;2024-01-11T00:02:04;-4.20;99.90
54124;DHT22;55741;53.252;5.788;2024-01-11T00:04:30;-4.10;99.90
54124;DHT22;55741;53.252;5.788;2024-01-11T00:06:56;-4.20;99.90
54124;DHT22;55741;53.252;5.788;2024-01-11T00:09:22;-4.20;99.90
54124;DHT22;55741;53.252;5.788;2024-01-11T00:11:49;-4.20;99.90
54124;DHT22;55741;53.252;5.788;2024-01-11T00:14:14;-4.20;99.90
54124;DHT22;55741;53.252;5.788;2024-01-11T00:16:41;-4.10;99.90
54124;DHT22;55741;53.252;5.788;2024-01-11T00:19:07;-4.10;99.90
54124;DHT22;55741;53.252;5.788;2024-01-11T00:21:33;-4.10;99.90
54124;DHT22;55741;53.252;5.788;2024-01-11T00:23:59;-4.10;99.90
54124;DHT22;55741;53.252;5.788;2024-01-11T00:26:24;-4.10;99.90
54124;DHT22;55741;53.252;5.788;2024-01-11T00:29:10;-4.20;99.90
54124;DHT22;55741;53.252;5.788;2024-01-11T00:31:36;-4.20;99.90
54124;DHT22;55741;53.252;5.788;2024-01-11T00:34:04;-4.20;99.90
54124;DHT22;55741;53.252;5.788;2024-01-11T00:36:50;-4.20;99.90
54124;DHT22;55741;53.252;5.788;2024-01-11T00:39:16;-4.20;99.90
54124;DHT22;55741;53.252;5.788;2024-01-11T00:41:41;-4.20;99.90
54124;DHT22;55741;53.252;5.788;2024-01-11T00:44:27;-4.20;99.90
54124;DHT22;55741;53.252;5.788;2024-01-11T00:47:13;-4.20;99.90
54124;DHT22;55741;53.252;5.788;2024-01-11T00:49:40;-4.20;99.90
54124;DHT22;55741;53.252;5.788;2024-01-11T00:52:06;-4.20;99.90
54124;DHT22;55741;53.252;5.788;2024-01-11T00:54:32;-4.20;99.90
54124;DHT22;55741;53.252;5.788;2024-01-11T00:56:58;-4.20;99.90
54124;DHT22;55741;53.252;5.788;2024-01-11T00:59:23;-4.20;99.90
54124;DHT22;55741;53.252;5.788;2024-01-11T01:01:50;-4.20;99.90
54124;DHT22;55741;53.252;5.788;2024-01-11T01:04:16;-4.20;99.90
54124;DHT22;55741;53.252;5.788;2024-01-11T01:06:42;-4.20;99.90
54124;DHT22;55741;53.252;5.788;2024-01-11T01:09:08;-4.20;99.90
54124;DHT22;55741;53.252;5.788;2024-01-11T01:11:35;-4.20;99.90
54124;DHT22;55741;53.252;5.788;2024-01-11T01:14:00;-4.20;99.90
54124;DHT22;55741;53.252;5.788;2024-01-11T01:16:26;-4.20;99.90
54124;DHT22;55741;53.252;5.788;2024-01-11T01:18:52;-4.20;99.90
54124;DHT22;55741;53.252;5.788;2024-01-11T01:21:18;-4.20;99.90
54124;DHT22;55741;53.252;5.788;2024-01-11T01:23:44;-4.20;99.90
54124;DHT22;55741;53.252;5.788;2024-01-11T01:26:09;-4.10;99.90
54124;DHT22;55741;53.252;5.788;2024-01-11T01:28:35;-4.20;99.90
54124;DHT22;55741;53.252;5.788;2024-01-11T01:31:02;-4.20;99.90
54124;DHT22;55741;53.252;5.788;2024-01-11T01:33:27;-4.20;99.90
54124;DHT22;55741;53.252;5.788;2024-01-11T01:35:53;-4.20;99.90
54124;DHT22;55741;53.252;5.788;2024-01-11T01:38:19;-4.20;99.90
54124;DHT22;55741;53.252;5.788;2024-01-11T01:40:45;-4.10;99.90
54124;DHT22;55741;53.252;5.788;2024-01-11T01:43:11;-4.10;99.90
54124;DHT22;55741;53.252;5.788;2024-01-11T01:45:38;-4.20;99.90
54124;DHT22;55741;53.252;5.788;2024-01-11T01:48:04;-4.20;99.90
54124;DHT22;55741;53.252;5.788;2024-01-11T01:50:32;-4.20;99.90
54124;DHT22;55741;53.252;5.788;2024-01-11T01:52:58;-4.20;99.90
54124;DHT22;55741;53.252;5.788;2024-01-11T01:55:25;-4.20;99.90
54124;DHT22;55741;53.252;5.788;2024-01-11T01:57:51;-4.10;99.90
54124;DHT22;55741;53.252;5.788;2024-01-11T02:00:18;-4.10;99.90
54124;DHT22;55741;53.252;5.788;2024-01-11T02:02:44;-4.10;99.90
54124;DHT22;55741;53.252;5.788;2024-01-11T02:05:13;-4.10;99.90
54124;DHT22;55741;53.252;5.788;2024-01-11T02:07:40;-4.10;99.90
54124;DHT22;55741;53.252;5.788;2024-01-11T02:10:07;-4.10;99.90
54124;DHT22;55741;53.252;5.788;2024-01-11T02:12:35;-4.10;99.90
54124;DHT22;55741;53.252;5.788;2024-01-11T02:15:01;-4.10;99.90
54124;DHT22;55741;53.252;5.788;2024-01-11T02:17:29;-4.10;99.90
54124;DHT22;55741;53.252;5.788;2024-01-11T02:19:55;-4.10;99.90
54124;DHT22;55741;53.252;5.788;2024-01-11T02:22:28;-4.10;99.90
54124;DHT22;55741;53.252;5.788;2024-01-11T02:24:55;-4.10;99.90
54124;DHT22;55741;53.252;5.788;2024-01-11T02:27:23;-4.10;99.90
54124;DHT22;55741;53.252;5.788;2024-01-11T02:30:09;-4.20;99.90
54124;DHT22;55741;53.252;5.788;2024-01-11T02:32:35;-4.20;99.90
54124;DHT22;55741;53.252;5.788;2024-01-11T02:35:01;-4.20;99.90
54124;DHT22;55741;53.252;5.788;2024-01-11T02:37:27;-4.30;99.90
54124;DHT22;55741;53.252;5.788;2024-01-11T02:39:53;-4.30;99.90
54124;DHT22;55741;53.252;5.788;2024-01-11T02:42:19;-4.30;99.90
54124;DHT22;55741;53.252;5.788;2024-01-11T02:44:45;-4.30;99.90
54124;DHT22;55741;53.252;5.788;2024-01-11T02:47:11;-4.30;99.90
54124;DHT22;55741;53.252;5.788;2024-01-11T02:49:37;-4.30;99.90
54124;DHT22;55741;53.252;5.788;2024-01-11T02:52:04;-4.30;99.90
54124;DHT22;55741;53.252;5.788;2024-01-11T02:54:30;-4.30;99.90
54124;DHT22;55741;53.252;5.788;2024-01-11T02:56:56;-4.40;99.90
54124;DHT22;55741;53.252;5.788;2024-01-11T02:59:23;-4.40;99.90
54124;DHT22;55741;53.252;5.788;2024-01-11T03:01:49;-4.30;99.90
54124;DHT22;55741;53.252;5.788;2024-01-11T03:04:16;-4.30;99.90
54124;DHT22;55741;53.252;5.788;2024-01-11T03:06:42;-4.40;99.90
54124;DHT22;55741;53.252;5.788;2024-01-11T03:09:28;-4.40;99.90
54124;DHT22;55741;53.252;5.788;2024-01-11T03:11:54;-4.40;99.90
54124;DHT22;55741;53.252;5.788;2024-01-11T03:14:20;-4.40;99.90
54124;DHT22;55741;53.252;5.788;2024-01-11T03:16:45;-4.40;99.90
54124;DHT22;55741;53.252;5.788;2024-01-11T03:19:11;-4.40;99.90
54124;DHT22;55741;53.252;5.788;2024-01-11T03:21:44;-4.40;99.90
54124;DHT22;55741;53.252;5.788;2024-01-11T03:24:10;-4.40;99.90
54124;DHT22;55741;53.252;5.788;2024-01-11T03:26:35;-4.40;99.90
54124;DHT22;55741;53.252;5.788;2024-01-11T03:29:01;-4.40;99.90
54124;DHT22;55741;53.252;5.788;2024-01-11T03:31:27;-4.40;99.90
54124;DHT22;55741;53.252;5.788;2024-01-11T03:33:53;-4.40;99.90
54124;DHT22;55741;53.252;5.788;2024-01-11T03:36:23;-4.40;99.90
54124;DHT22;55741;53.252;5.788;2024-01-11T03:38:50;-4.40;99.90
54124;DHT22;55741;53.252;5.788;2024-01-11T03:41:16;-4.40;99.90
54124;DHT22;55741;53.252;5.788;2024-01-11T03:43:42;-4.40;99.90
54124;DHT22;55741;53.252;5.788;2024-01-11T03:46:08;-4.50;99.90
54124;DHT22;55741;53.252;5.788;2024-01-11T03:48:34;-4.50;99.90
54124;DHT22;55741;53.252;5.788;2024-01-11T03:51:01;-4.50;99.90
54124;DHT22;55741;53.252;5.788;2024-01-11T03:53:29;-4.50;99.90
54124;DHT22;55741;53.252;5.788;2024-01-11T03:55:54;-4.50;99.90
54124;DHT22;55741;53.252;5.788;2024-01-11T03:58:40;-4.50;99.90
54124;DHT22;55741;53.252;5.788;2024-01-11T04:01:07;-4.50;99.90
54124;DHT22;55741;53.252;5.788;2024-01-11T04:03:35;-4.50;99.90
54124;DHT22;55741;53.252;5.788;2024-01-11T04:06:01;-4.50;99.90
54124;DHT22;55741;53.252;5.788;2024-01-11T04:08:27;-4.50;99.90
54124;DHT22;55741;53.252;5.788;2024-01-11T04:10:53;-4.50;99.90
54124;DHT22;55741;53.252;5.788;2024-01-11T04:13:19;-4.50;99.90
54124;DHT22;55741;53.252;5.788;2024-01-11T04:16:05;-4.50;99.90
54124;DHT22;55741;53.252;5.788;2024-01-11T04:18:52;-4.50;99.90
54124;DHT22;55741;53.252;5.788;2024-01-11T04:21:24;-4.50;99.90
54124;DHT22;55741;53.252;5.788;2024-01-11T04:23:54;-4.50;99.90
54124;DHT22;55741;53.252;5.788;2024-01-11T04:26:20;-4.50;99.90
54124;DHT22;55741;53.252;5.788;2024-01-11T04:28:46;-4.60;99.90
54124;DHT22;55741;53.252;5.788;2024-01-11T04:31:16;-4.50;99.90
54124;DHT22;55741;53.252;5.788;2024-01-11T04:33:46;-4.60;99.90
54124;DHT22;55741;53.252;5.788;2024-01-11T04:36:12;-4.60;99.90
54124;DHT22;55741;53.252;5.788;2024-01-11T04:38:39;-4.50;99.90
54124;DHT22;55741;53.252;5.788;2024-01-11T04:41:14;-4.60;99.90
54124;DHT22;55741;53.252;5.788;2024-01-11T04:43:41;-4.50;99.90
54124;DHT22;55741;53.252;5.788;2024-01-11T04:46:15;-4.60;99.90
54124;DHT22;55741;53.252;5.788;2024-01-11T04:48:41;-4.50;99.90
54124;DHT22;55741;53.252;5.788;2024-01-11T04:51:07;-4.50;99.90
54124;DHT22;55741;53.252;5.788;2024-01-11T04:53:38;-4.50;99.90
54124;DHT22;55741;53.252;5.788;2024-01-11T04:56:08;-4.40;99.90
54124;DHT22;55741;53.252;5.788;2024-01-11T04:58:35;-4.40;99.90
54124;DHT22;55741;53.252;5.788;2024-01-11T05:01:04;-4.30;99.90
54124;DHT22;55741;53.252;5.788;2024-01-11T05:03:31;-4.20;99.90
54124;DHT22;55741;53.252;5.788;2024-01-11T05:06:18;-4.20;99.90
54124;DHT22;55741;53.252;5.788;2024-01-11T05:08:49;-4.10;99.90
54124;DHT22;55741;53.252;5.788;2024-01-11T05:11:18;-4.00;99.90
54124;DHT22;55741;53.252;5.788;2024-01-11T05:13:45;-4.00;99.90
54124;DHT22;55741;53.252;5.788;2024-01-11T05:16:24;-3.90;99.90
54124;DHT22;55741;53.252;5.788;2024-01-11T05:18:52;-3.80;99.90
54124;DHT22;55741;53.252;5.788;2024-01-11T05:21:18;-3.70;99.90
54124;DHT22;55741;53.252;5.788;2024-01-11T05:23:44;-3.70;99.90
54124;DHT22;55741;53.252;5.788;2024-01-11T05:26:12;-3.60;99.90
54124;DHT22;55741;53.252;5.788;2024-01-11T05:28:38;-3.50;99.90
54124;DHT22;55741;53.252;5.788;2024-01-11T05:31:11;-3.50;99.90
54124;DHT22;55741;53.252;5.788;2024-01-11T05:33:38;-3.40;99.90
54124;DHT22;55741;53.252;5.788;2024-01-11T05:36:04;-3.40;99.90
54124;DHT22;55741;53.252;5.788;2024-01-11T05:38:30;-3.30;99.90
54124;DHT22;55741;53.252;5.788;2024-01-11T05:40:56;-3.30;99.90
54124;DHT22;55741;53.252;5.788;2024-01-11T05:43:22;-3.20;99.90
54124;DHT22;55741;53.252;5.788;2024-01-11T05:46:09;-3.20;99.90
54124;DHT22;55741;53.252;5.788;2024-01-11T05:48:35;-3.10;99.90
54124;DHT22;55741;53.252;5.788;2024-01-11T05:51:01;-3.10;99.90
54124;DHT22;55741;53.252;5.788;2024-01-11T05:53:26;-3.10;99.90
54124;DHT22;55741;53.252;5.788;2024-01-11T05:55:54;-3.00;99.90
54124;DHT22;55741;53.252;5.788;2024-01-11T05:58:20;-3.00;99.90
54124;DHT22;55741;53.252;5.788;2024-01-11T06:00:46;-3.00;99.90
54124;DHT22;55741;53.252;5.788;2024-01-11T06:03:12;-2.90;99.90
54124;DHT22;55741;53.252;5.788;2024-01-11T06:05:39;-2.80;99.90
54124;DHT22;55741;53.252;5.788;2024-01-11T06:08:05;-2.80;99.90
54124;DHT22;55741;53.252;5.788;2024-01-11T06:10:31;-2.80;99.90
54124;DHT22;55741;53.252;5.788;2024-01-11T06:12:57;-2.70;99.90
54124;DHT22;55741;53.252;5.788;2024-01-11T06:15:42;-2.70;99.90
54124;DHT22;55741;53.252;5.788;2024-01-11T06:18:08;-2.70;99.90
54124;DHT22;55741;53.252;5.788;2024-01-11T06:20:34;-2.60;99.90
54124;DHT22;55741;53.252;5.788;2024-01-11T06:23:00;-2.60;99.90
54124;DHT22;55741;53.252;5.788;2024-01-11T06:25:26;-2.60;99.90
54124;DHT22;55741;53.252;5.788;2024-01-11T06:27:52;-2.50;99.90
54124;DHT22;55741;53.252;5.788;2024-01-11T06:30:18;-2.50;99.90
54124;DHT22;55741;53.252;5.788;2024-01-11T06:32:43;-2.50;99.90
54124;DHT22;55741;53.252;5.788;2024-01-11T06:35:09;-2.50;99.90
54124;DHT22;55741;53.252;5.788;2024-01-11T06:37:35;-2.40;99.90
54124;DHT22;55741;53.252;5.788;2024-01-11T06:40:01;-2.40;99.90
54124;DHT22;55741;53.252;5.788;2024-01-11T06:42:30;-2.30;99.90
54124;DHT22;55741;53.252;5.788;2024-01-11T06:44:56;-2.30;99.90
54124;DHT22;55741;53.252;5.788;2024-01-11T06:47:22;-2.30;99.90
54124;DHT22;55741;53.252;5.788;2024-01-11T06:49:47;-2.30;99.90
54124;DHT22;55741;53.252;5.788;2024-01-11T06:52:13;-2.20;99.90
54124;DHT22;55741;53.252;5.788;2024-01-11T06:54:39;-2.20;99.90
54124;DHT22;55741;53.252;5.788;2024-01-11T06:57:07;-2.20;99.90
54124;DHT22;55741;53.252;5.788;2024-01-11T06:59:34;-2.20;99.90
54124;DHT22;55741;53.252;5.788;2024-01-11T07:02:19;-2.20;99.90
54124;DHT22;55741;53.252;5.788;2024-01-11T07:04:45;-2.20;99.90
54124;DHT22;55741;53.252;5.788;2024-01-11T07:07:11;-2.10;99.90
54124;DHT22;55741;53.252;5.788;2024-01-11T07:09:37;-2.10;99.90
54124;DHT22;55741;53.252;5.788;2024-01-11T07:12:03;-2.00;99.90
54124;DHT22;55741;53.252;5.788;2024-01-11T07:14:29;-2.10;99.90
54124;DHT22;55741;53.252;5.788;2024-01-11T07:16:55;-2.00;99.90
54124;DHT22;55741;53.252;5.788;2024-01-11T07:19:21;-2.00;99.90
54124;DHT22;55741;53.252;5.788;2024-01-11T07:21:47;-2.00;99.90
54124;DHT22;55741;53.252;5.788;2024-01-11T07:24:13;-1.90;99.90
54124;DHT22;55741;53.252;5.788;2024-01-11T07:26:39;-1.90;99.90
54124;DHT22;55741;53.252;5.788;2024-01-11T07:29:05;-1.90;99.90
54124;DHT22;55741;53.252;5.788;2024-01-11T07:31:51;-1.90;99.90
54124;DHT22;55741;53.252;5.788;2024-01-11T07:34:17;-1.90;99.90
54124;DHT22;55741;53.252;5.788;2024-01-11T07:36:43;-1.90;99.90
54124;DHT22;55741;53.252;5.788;2024-01-11T07:39:09;-1.80;99.90
54124;DHT22;55741;53.252;5.788;2024-01-11T07:41:35;-1.80;99.90
54124;DHT22;55741;53.252;5.788;2024-01-11T07:44:01;-1.80;99.90
54124;DHT22;55741;53.252;5.788;2024-01-11T07:46:26;-1.80;99.90
54124;DHT22;55741;53.252;5.788;2024-01-11T07:48:52;-1.70;99.90
54124;DHT22;55741;53.252;5.788;2024-01-11T07:51:18;-1.70;99.90
54124;DHT22;55741;53.252;5.788;2024-01-11T07:53:45;-1.70;99.90
54124;DHT22;55741;53.252;5.788;2024-01-11T07:56:31;-1.70;99.90
54124;DHT22;55741;53.252;5.788;2024-01-11T07:58:58;-1.60;99.90
54124;DHT22;55741;53.252;5.788;2024-01-11T08:01:24;-1.50;99.90
54124;DHT22;55741;53.252;5.788;2024-01-11T08:03:50;-1.60;99.90
54124;DHT22;55741;53.252;5.788;2024-01-11T08:06:18;-1.60;99.90
54124;DHT22;55741;53.252;5.788;2024-01-11T08:08:43;-1.50;99.90
54124;DHT22;55741;53.252;5.788;2024-01-11T08:11:10;-1.50;99.90
54124;DHT22;55741;53.252;5.788;2024-01-11T08:13:38;-1.50;99.90
54124;DHT22;55741;53.252;5.788;2024-01-11T08:16:05;-1.50;99.90
54124;DHT22;55741;53.252;5.788;2024-01-11T08:18:35;-1.40;99.90
54124;DHT22;55741;53.252;5.788;2024-01-11T08:21:01;-1.40;99.90
54124;DHT22;55741;53.252;5.788;2024-01-11T08:23:27;-1.40;99.90
54124;DHT22;55741;53.252;5.788;2024-01-11T08:25:52;-1.40;99.90
54124;DHT22;55741;53.252;5.788;2024-01-11T08:28:38;-1.40;99.90
54124;DHT22;55741;53.252;5.788;2024-01-11T08:31:04;-1.30;99.90
54124;DHT22;55741;53.252;5.788;2024-01-11T08:33:30;-1.30;99.90
54124;DHT22;55741;53.252;5.788;2024-01-11T08:35:56;-1.20;99.90
54124;DHT22;55741;53.252;5.788;2024-01-11T08:38:43;-1.30;99.90
54124;DHT22;55741;53.252;5.788;2024-01-11T08:41:09;-1.20;99.90
54124;DHT22;55741;53.252;5.788;2024-01-11T08:43:34;-1.20;99.90
54124;DHT22;55741;53.252;5.788;2024-01-11T08:46:00;-1.20;99.90
54124;DHT22;55741;53.252;5.788;2024-01-11T08:48:27;-1.00;99.90
54124;DHT22;55741;53.252;5.788;2024-01-11T08:50:54;-1.10;99.90
54124;DHT22;55741;53.252;5.788;2024-01-11T08:53:20;-1.10;99.90
54124;DHT22;55741;53.252;5.788;2024-01-11T08:55:45;-1.00;99.90
54124;DHT22;55741;53.252;5.788;2024-01-11T08:58:11;-1.00;99.90
54124;DHT22;55741;53.252;5.788;2024-01-11T09:00:39;-0.90;99.90
54124;DHT22;55741;53.252;5.788;2024-01-11T09:03:05;-0.90;99.90
54124;DHT22;55741;53.252;5.788;2024-01-11T09:05:31;-0.80;99.90
54124;DHT22;55741;53.252;5.788;2024-01-11T09:07:57;-0.80;99.90
54124;DHT22;55741;53.252;5.788;2024-01-11T09:10:23;-0.70;99.90
54124;DHT22;55741;53.252;5.788;2024-01-11T09:12:49;-0.70;99.90
54124;DHT22;55741;53.252;5.788;2024-01-11T09:15:15;-0.60;99.90
54124;DHT22;55741;53.252;5.788;2024-01-11T09:17:40;-0.60;99.90
54124;DHT22;55741;53.252;5.788;2024-01-11T09:20:26;-0.60;99.90
54124;DHT22;55741;53.252;5.788;2024-01-11T09:22:52;-0.50;99.90
54124;DHT22;55741;53.252;5.788;2024-01-11T09:25:18;-0.50;99.90
54124;DHT22;55741;53.252;5.788;2024-01-11T09:27:44;-0.40;99.90
54124;DHT22;55741;53.252;5.788;2024-01-11T09:30:10;-0.40;99.90
54124;DHT22;55741;53.252;5.788;2024-01-11T09:32:36;-0.30;99.90
54124;DHT22;55741;53.252;5.788;2024-01-11T09:35:03;-0.30;99.90
54124;DHT22;55741;53.252;5.788;2024-01-11T09:37:30;-0.20;99.90
54124;DHT22;55741;53.252;5.788;2024-01-11T09:39:57;-0.20;99.90
54124;DHT22;55741;53.252;5.788;2024-01-11T09:42:23;-0.10;99.90
54124;DHT22;55741;53.252;5.788;2024-01-11T09:45:16;-0.10;99.90
54124;DHT22;55741;53.252;5.788;2024-01-11T09:47:44;0.00;99.90
54124;DHT22;55741;53.252;5.788;2024-01-11T09:50:11;0.00;99.90
54124;DHT22;55741;53.252;5.788;2024-01-11T09:52:47;0.10;99.90
54124;DHT22;55741;53.252;5.788;2024-01-11T09:55:17;0.10;99.90
54124;DHT22;55741;53.252;5.788;2024-01-11T09:57:47;0.20;99.90
54124;DHT22;55741;53.252;5.788;2024-01-11T10:00:17;0.20;99.90
54124;DHT22;55741;53.252;5.788;2024-01-11T10:02:46;0.20;99.90
54124;DHT22;55741;53.252;5.788;2024-01-11T10:05:12;0.30;99.90
54124;DHT22;55741;53.252;5.788;2024-01-11T10:07:39;0.30;99.90
54124;DHT22;55741;53.252;5.788;2024-01-11T10:10:06;0.40;99.90
54124;DHT22;55741;53.252;5.788;2024-01-11T10:12:36;0.40;99.90
54124;DHT22;55741;53.252;5.788;2024-01-11T10:15:06;0.50;99.90
54124;DHT22;55741;53.252;5.788;2024-01-11T10:17:42;0.50;99.90
54124;DHT22;55741;53.252;5.788;2024-01-11T10:20:13;0.50;99.90
54124;DHT22;55741;53.252;5.788;2024-01-11T10:22:40;0.50;99.90
54124;DHT22;55741;53.252;5.788;2024-01-11T10:25:14;0.60;99.90
54124;DHT22;55741;53.252;5.788;2024-01-11T10:27:42;0.60;99.90
54124;DHT22;55741;53.252;5.788;2024-01-11T10:30:09;0.60;99.90
54124;DHT22;55741;53.252;5.788;2024-01-11T10:32:36;0.70;99.90
54124;DHT22;55741;53.252;5.788;2024-01-11T10:35:02;0.70;99.90
54124;DHT22;55741;53.252;5.788;2024-01-11T10:37:51;0.80;99.90
54124;DHT22;55741;53.252;5.788;2024-01-11T10:40:20;0.80;99.90
54124;DHT22;55741;53.252;5.788;2024-01-11T10:42:51;0.90;99.90
54124;DHT22;55741;53.252;5.788;2024-01-11T10:45:38;0.90;99.90
54124;DHT22;55741;53.252;5.788;2024-01-11T10:48:14;1.00;99.90
54124;DHT22;55741;53.252;5.788;2024-01-11T10:50:45;1.00;99.90
54124;DHT22;55741;53.252;5.788;2024-01-11T10:56:04;1.10;99.90
54124;DHT22;55741;53.252;5.788;2024-01-11T10:58:33;1.20;99.90
54124;DHT22;55741;53.252;5.788;2024-01-11T11:01:02;1.30;99.90
54124;DHT22;55741;53.252;5.788;2024-01-11T11:03:52;1.30;99.90
54124;DHT22;55741;53.252;5.788;2024-01-11T11:06:20;1.30;99.90
54124;DHT22;55741;53.252;5.788;2024-01-11T11:08:49;1.50;99.90
54124;DHT22;55741;53.252;5.788;2024-01-11T11:11:17;1.40;99.90
54124;DHT22;55741;53.252;5.788;2024-01-11T11:13:47;1.50;99.90
54124;DHT22;55741;53.252;5.788;2024-01-11T11:16:15;1.50;99.90
54124;DHT22;55741;53.252;5.788;2024-01-11T11:18:41;1.60;99.90
54124;DHT22;55741;53.252;5.788;2024-01-11T11:21:10;1.60;99.90
54124;DHT22;55741;53.252;5.788;2024-01-11T11:23:39;1.70;99.90
54124;DHT22;55741;53.252;5.788;2024-01-11T11:26:06;1.70;99.90
54124;DHT22;55741;53.252;5.788;2024-01-11T11:28:35;1.70;99.90
54124;DHT22;55741;53.252;5.788;2024-01-11T11:31:02;1.80;99.90
54124;DHT22;55741;53.252;5.788;2024-01-11T11:33:29;1.80;99.90
54124;DHT22;55741;53.252;5.788;2024-01-11T11:35:59;1.80;99.90
54124;DHT22;55741;53.252;5.788;2024-01-11T11:38:27;1.90;99.90
54124;DHT22;55741;53.252;5.788;2024-01-11T11:40:57;2.00;99.90
54124;DHT22;55741;53.252;5.788;2024-01-11T11:43:26;2.00;99.90
54124;DHT22;55741;53.252;5.788;2024-01-11T11:45:53;2.10;99.90
54124;DHT22;55741;53.252;5.788;2024-01-11T11:53:35;2.20;99.90
54124;DHT22;55741;53.252;5.788;2024-01-11T11:56:01;2.20;99.90
54124;DHT22;55741;53.252;5.788;2024-01-11T11:58:29;2.30;99.90
54124;DHT22;55741;53.252;5.788;2024-01-11T12:00:55;2.30;99.90
54124;DHT22;55741;53.252;5.788;2024-01-11T12:03:31;2.30;99.90
54124;DHT22;55741;53.252;5.788;2024-01-11T12:06:00;2.40;99.90
54124;DHT22;55741;53.252;5.788;2024-01-11T12:08:26;2.50;99.90
54124;DHT22;55741;53.252;5.788;2024-01-11T12:10:53;2.50;99.90
54124;DHT22;55741;53.252;5.788;2024-01-11T12:13:19;2.50;99.90
54124;DHT22;55741;53.252;5.788;2024-01-11T12:15:46;2.60;99.90
54124;DHT22;55741;53.252;5.788;2024-01-11T12:18:32;2.60;99.90
54124;DHT22;55741;53.252;5.788;2024-01-11T12:20:58;2.60;99.90
54124;DHT22;55741;53.252;5.788;2024-01-11T12:23:24;2.70;99.90
54124;DHT22;55741;53.252;5.788;2024-01-11T12:25:50;2.70;99.90
54124;DHT22;55741;53.252;5.788;2024-01-11T12:28:17;2.80;99.90
54124;DHT22;55741;53.252;5.788;2024-01-11T12:30:43;2.80;99.90
54124;DHT22;55741;53.252;5.788;2024-01-11T12:33:10;2.80;99.90
54124;DHT22;55741;53.252;5.788;2024-01-11T12:35:37;2.90;99.90
54124;DHT22;55741;53.252;5.788;2024-01-11T12:38:22;2.90;99.90
54124;DHT22;55741;53.252;5.788;2024-01-11T12:41:08;2.90;99.90
54124;DHT22;55741;53.252;5.788;2024-01-11T12:43:36;3.00;99.90
54124;DHT22;55741;53.252;5.788;2024-01-11T12:46:02;3.00;99.90
54124;DHT22;55741;53.252;5.788;2024-01-11T12:48:28;3.00;99.90
54124;DHT22;55741;53.252;5.788;2024-01-11T12:50:55;3.10;99.90
54124;DHT22;55741;53.252;5.788;2024-01-11T12:53:21;3.10;99.90
54124;DHT22;55741;53.252;5.788;2024-01-11T12:55:48;3.10;99.90
54124;DHT22;55741;53.252;5.788;2024-01-11T12:58:34;3.20;99.90
54124;DHT22;55741;53.252;5.788;2024-01-11T13:01:00;3.20;99.90
54124;DHT22;55741;53.252;5.788;2024-01-11T13:03:26;3.20;99.90
54124;DHT22;55741;53.252;5.788;2024-01-11T13:05:55;3.30;99.90
54124;DHT22;55741;53.252;5.788;2024-01-11T13:08:23;3.30;99.90
54124;DHT22;55741;53.252;5.788;2024-01-11T13:10:49;3.30;99.90
54124;DHT22;55741;53.252;5.788;2024-01-11T13:13:15;3.40;99.90
54124;DHT22;55741;53.252;5.788;2024-01-11T13:15:41;3.40;99.90
54124;DHT22;55741;53.252;5.788;2024-01-11T13:18:07;3.40;99.90
54124;DHT22;55741;53.252;5.788;2024-01-11T13:20:33;3.40;99.90
54124;DHT22;55741;53.252;5.788;2024-01-11T13:23:13;3.40;99.90
54124;DHT22;55741;53.252;5.788;2024-01-11T13:25:43;3.50;99.90
54124;DHT22;55741;53.252;5.788;2024-01-11T13:28:09;3.50;99.90
54124;DHT22;55741;53.252;5.788;2024-01-11T13:30:38;3.50;99.90
54124;DHT22;55741;53.252;5.788;2024-01-11T13:33:05;3.50;99.90
54124;DHT22;55741;53.252;5.788;2024-01-11T13:35:31;3.50;99.90
54124;DHT22;55741;53.252;5.788;2024-01-11T13:37:57;3.60;99.90
54124;DHT22;55741;53.252;5.788;2024-01-11T13:40:22;3.60;99.90
54124;DHT22;55741;53.252;5.788;2024-01-11T13:42:49;3.50;99.90
54124;DHT22;55741;53.252;5.788;2024-01-11T13:45:35;3.50;99.90
54124;DHT22;55741;53.252;5.788;2024-01-11T13:48:05;3.50;99.90
54124;DHT22;55741;53.252;5.788;2024-01-11T13:50:31;3.60;99.90
54124;DHT22;55741;53.252;5.788;2024-01-11T13:52:58;3.50;99.90
54124;DHT22;55741;53.252;5.788;2024-01-11T13:55:24;3.60;99.90
54124;DHT22;55741;53.252;5.788;2024-01-11T13:57:50;3.60;99.90
54124;DHT22;55741;53.252;5.788;2024-01-11T14:00:17;3.70;99.90
54124;DHT22;55741;53.252;5.788;2024-01-11T14:02:44;3.70;99.90
54124;DHT22;55741;53.252;5.788;2024-01-11T14:05:11;3.90;99.90
54124;DHT22;55741;53.252;5.788;2024-01-11T14:07:38;3.80;99.90
54124;DHT22;55741;53.252;5.788;2024-01-11T14:10:07;3.80;99.90
54124;DHT22;55741;53.252;5.788;2024-01-11T14:12:35;3.90;99.90
54124;DHT22;55741;53.252;5.788;2024-01-11T14:15:05;3.80;99.90
54124;DHT22;55741;53.252;5.788;2024-01-11T14:17:33;3.90;99.90
54124;DHT22;55741;53.252;5.788;2024-01-11T14:19:59;3.90;99.90
54124;DHT22;55741;53.252;5.788;2024-01-11T14:22:46;3.90;99.90
54124;DHT22;55741;53.252;5.788;2024-01-11T14:25:21;3.90;99.90
54124;DHT22;55741;53.252;5.788;2024-01-11T14:27:48;3.90;99.90
54124;DHT22;55741;53.252;5.788;2024-01-11T14:30:14;3.90;99.90
54124;DHT22;55741;53.252;5.788;2024-01-11T14:32:40;3.90;99.90
54124;DHT22;55741;53.252;5.788;2024-01-11T14:35:09;4.00;99.90
54124;DHT22;55741;53.252;5.788;2024-01-11T14:37:37;3.90;99.90
54124;DHT22;55741;53.252;5.788;2024-01-11T14:40:08;4.00;99.90
54124;DHT22;55741;53.252;5.788;2024-01-11T14:42:37;3.90;99.90
54124;DHT22;55741;53.252;5.788;2024-01-11T14:45:03;4.00;99.90
54124;DHT22;55741;53.252;5.788;2024-01-11T14:47:30;4.00;99.90
54124;DHT22;55741;53.252;5.788;2024-01-11T14:49:57;4.00;99.90
54124;DHT22;55741;53.252;5.788;2024-01-11T14:52:25;4.00;99.90
54124;DHT22;55741;53.252;5.788;2024-01-11T14:54:51;4.00;99.90
54124;DHT22;55741;53.252;5.788;2024-01-11T14:57:17;4.00;99.90
54124;DHT22;55741;53.252;5.788;2024-01-11T14:59:43;4.00;99.90
54124;DHT22;55741;53.252;5.788;2024-01-11T15:02:10;4.00;99.90
54124;DHT22;55741;53.252;5.788;2024-01-11T15:04:36;3.90;99.90
54124;DHT22;55741;53.252;5.788;2024-01-11T15:07:02;4.00;99.90
54124;DHT22;55741;53.252;5.788;2024-01-11T15:09:29;3.90;99.90
54124;DHT22;55741;53.252;5.788;2024-01-11T15:11:56;3.90;99.90
54124;DHT22;55741;53.252;5.788;2024-01-11T15:14:22;3.90;99.90
54124;DHT22;55741;53.252;5.788;2024-01-11T15:16:48;3.90;99.90
54124;DHT22;55741;53.252;5.788;2024-01-11T15:19:14;3.90;99.90
54124;DHT22;55741;53.252;5.788;2024-01-11T15:21:40;3.90;99.90
54124;DHT22;55741;53.252;5.788;2024-01-11T15:24:06;3.90;99.90
54124;DHT22;55741;53.252;5.788;2024-01-11T15:26:33;3.80;99.90
54124;DHT22;55741;53.252;5.788;2024-01-11T15:28:59;3.90;99.90
54124;DHT22;55741;53.252;5.788;2024-01-11T15:31:25;3.90;99.90
54124;DHT22;55741;53.252;5.788;2024-01-11T15:33:52;3.90;99.90
54124;DHT22;55741;53.252;5.788;2024-01-11T15:36:18;3.90;99.90
54124;DHT22;55741;53.252;5.788;2024-01-11T15:39:04;3.90;99.90
54124;DHT22;55741;53.252;5.788;2024-01-11T15:41:30;3.90;99.90
54124;DHT22;55741;53.252;5.788;2024-01-11T15:43:56;3.90;99.90
54124;DHT22;55741;53.252;5.788;2024-01-11T15:46:22;3.90;99.90
54124;DHT22;55741;53.252;5.788;2024-01-11T15:48:47;3.90;99.90
54124;DHT22;55741;53.252;5.788;2024-01-11T15:51:13;3.90;99.90
54124;DHT22;55741;53.252;5.788;2024-01-11T15:53:39;3.70;99.90